sensor_id;sensor_type;location;lat;lon;timestamp;temperature;humidity
19033;DHT22;9649;51.042;13.804;2022-09-25T00:02:49;11.30;99.90
19033;DHT22;9649;51.042;13.804;2022-09-25T00:07:52;11.10;99.90
19033;DHT22;9649;51.042;13.804;2022-09-25T00:12:57;10.90;99.90
19033;DHT22;9649;51.042;13.804;2022-09-25T00:18:01;10.70;99.90
19033;DHT22;9649;51.042;13.804;2022-09-25T00:23:03;10.70;99.90
19033;DHT22;9649;51.042;13.804;2022-09-25T00:28:06;10.90;99.90
19033;DHT22;9649;51.042;13.804;2022-09-25T00:33:10;10.80;99.90
19033;DHT22;9649;51.042;13.804;2022-09-25T00:38:13;10.80;99.90
19033;DHT22;9649;51.042;13.804;2022-09-25T00:43:34;11.10;99.90
19033;DHT22;9649;51.042;13.804;2022-09-25T00:48:46;11.30;99.90
19033;DHT22;9649;51.042;13.804;2022-09-25T00:53:50;11.30;99.90
19033;DHT22;9649;51.042;13.804;2022-09-25T00:58:53;11.30;99.90
19033;DHT22;9649;51.042;13.804;2022-09-25T01:03:58;11.30;99.90
19033;DHT22;9649;51.042;13.804;2022-09-25T01:09:01;11.10;99.90
19033;DHT22;9649;51.042;13.804;2022-09-25T01:14:05;11.00;99.90
19033;DHT22;9649;51.042;13.804;2022-09-25T01:19:23;11.00;99.90
19033;DHT22;9649;51.042;13.804;2022-09-25T01:24:42;11.00;99.90
19033;DHT22;9649;51.042;13.804;2022-09-25T01:29:52;11.00;99.90
19033;DHT22;9649;51.042;13.804;2022-09-25T01:34:59;11.00;99.90
19033;DHT22;9649;51.042;13.804;2022-09-25T01:40:07;11.10;99.90
19033;DHT22;9649;51.042;13.804;2022-09-25T01:45:17;11.10;99.90
19033;DHT22;9649;51.042;13.804;2022-09-25T01:50:25;11.30;99.90
19033;DHT22;9649;51.042;13.804;2022-09-25T01:55:32;11.50;99.90
19033;DHT22;9649;51.042;13.804;2022-09-25T02:00:40;11.60;99.90
19033;DHT22;9649;51.042;13.804;2022-09-25T02:05:47;11.50;99.90
19033;DHT22;9649;51.042;13.804;2022-09-25T02:10:53;11.60;99.90
19033;DHT22;9649;51.042;13.804;2022-09-25T02:16:01;11.70;74.60
19033;DHT22;9649;51.042;13.804;2022-09-25T02:21:12;11.80;1.00
19033;DHT22;9649;51.042;13.804;2022-09-25T02:26:21;12.00;1.00
19033;DHT22;9649;51.042;13.804;2022-09-25T02:31:28;12.00;1.00
19033;DHT22;9649;51.042;13.804;2022-09-25T02:36:32;11.90;1.00
19033;DHT22;9649;51.042;13.804;2022-09-25T02:41:45;11.90;1.30
19033;DHT22;9649;51.042;13.804;2022-09-25T02:46:58;11.80;82.80
19033;DHT22;9649;51.042;13.804;2022-09-25T02:52:10;11.80;16.90
19033;DHT22;9649;51.042;13.804;2022-09-25T02:57:18;11.80;1.00
19033;DHT22;9649;51.042;13.804;2022-09-25T03:02:25;11.90;1.00
19033;DHT22;9649;51.042;13.804;2022-09-25T03:07:29;12.00;1.00
19033;DHT22;9649;51.042;13.804;2022-09-25T03:12:52;12.00;1.00
19033;DHT22;9649;51.042;13.804;2022-09-25T03:17:57;12.10;1.00
19033;DHT22;9649;51.042;13.804;2022-09-25T03:23:00;12.10;1.00
19033;DHT22;9649;51.042;13.804;2022-09-25T03:28:03;12.10;1.00
19033;DHT22;9649;51.042;13.804;2022-09-25T03:33:07;12.00;1.00
19033;DHT22;9649;51.042;13.804;2022-09-25T03:38:10;11.90;1.00
19033;DHT22;9649;51.042;13.804;2022-09-25T03:43:13;11.80;1.00
19033;DHT22;9649;51.042;13.804;2022-09-25T03:48:17;11.80;1.00
19033;DHT22;9649;51.042;13.804;2022-09-25T03:53:20;11.80;1.00
19033;DHT22;9649;51.042;13.804;2022-09-25T03:58:23;11.90;1.00
19033;DHT22;9649;51.042;13.804;2022-09-25T04:03:28;12.10;1.00
19033;DHT22;9649;51.042;13.804;2022-09-25T04:08:32;12.00;1.00
19033;DHT22;9649;51.042;13.804;2022-09-25T04:13:36;12.00;1.00
19033;DHT22;9649;51.042;13.804;2022-09-25T04:18:41;12.10;1.00
19033;DHT22;9649;51.042;13.804;2022-09-25T04:23:44;12.20;1.00
19033;DHT22;9649;51.042;13.804;2022-09-25T04:29:08;12.20;1.00
19033;DHT22;9649;51.042;13.804;2022-09-25T04:34:12;12.00;1.00
19033;DHT22;9649;51.042;13.804;2022-09-25T04:39:14;12.00;1.00
19033;DHT22;9649;51.042;13.804;2022-09-25T04:44:21;11.90;1.00
19033;DHT22;9649;51.042;13.804;2022-09-25T04:49:25;11.90;1.00
19033;DHT22;9649;51.042;13.804;2022-09-25T04:54:28;12.00;1.00
19033;DHT22;9649;51.042;13.804;2022-09-25T04:59:30;11.90;1.00
19033;DHT22;9649;51.042;13.804;2022-09-25T05:04:34;12.00;1.00
19033;DHT22;9649;51.042;13.804;2022-09-25T05:09:37;11.90;1.00
19033;DHT22;9649;51.042;13.804;2022-09-25T05:14:40;11.90;1.00
19033;DHT22;9649;51.042;13.804;2022-09-25T05:19:44;11.90;1.00
19033;DHT22;9649;51.042;13.804;2022-09-25T05:24:47;11.90;1.00
19033;DHT22;9649;51.042;13.804;2022-09-25T05:29:49;11.90;1.00
19033;DHT22;9649;51.042;13.804;2022-09-25T05:34:53;12.00;1.00
19033;DHT22;9649;51.042;13.804;2022-09-25T05:39:56;12.10;1.00
19033;DHT22;9649;51.042;13.804;2022-09-25T05:44:58;12.20;1.00
19033;DHT22;9649;51.042;13.804;2022-09-25T05:50:11;12.20;1.00
19033;DHT22;9649;51.042;13.804;2022-09-25T05:55:14;12.30;1.00
19033;DHT22;9649;51.042;13.804;2022-09-25T06:00:17;12.30;1.00
19033;DHT22;9649;51.042;13.804;2022-09-25T06:05:21;12.60;1.00
19033;DHT22;9649;51.042;13.804;2022-09-25T06:10:23;12.70;1.00
19033;DHT22;9649;51.042;13.804;2022-09-25T06:15:28;12.90;1.00
19033;DHT22;9649;51.042;13.804;2022-09-25T06:20:33;13.10;1.00
19033;DHT22;9649;51.042;13.804;2022-09-25T06:25:36;13.30;1.00
19033;DHT22;9649;51.042;13.804;2022-09-25T06:30:38;13.40;99.90
19033;DHT22;9649;51.042;13.804;2022-09-25T06:35:44;13.70;99.90
19033;DHT22;9649;51.042;13.804;2022-09-25T06:40:47;14.00;1.00
19033;DHT22;9649;51.042;13.804;2022-09-25T06:45:50;14.40;1.00
19033;DHT22;9649;51.042;13.804;2022-09-25T06:50:55;14.50;1.00
19033;DHT22;9649;51.042;13.804;2022-09-25T06:55:58;14.30;1.00
19033;DHT22;9649;51.042;13.804;2022-09-25T07:01:01;14.40;27.90
19033;DHT22;9649;51.042;13.804;2022-09-25T07:06:13;14.40;13.90
19033;DHT22;9649;51.042;13.804;2022-09-25T07:11:18;14.40;99.90
19033;DHT22;9649;51.042;13.804;2022-09-25T07:16:23;14.70;1.00
19033;DHT22;9649;51.042;13.804;2022-09-25T07:21:27;15.20;99.90
19033;DHT22;9649;51.042;13.804;2022-09-25T07:26:32;15.50;85.70
19033;DHT22;9649;51.042;13.804;2022-09-25T07:31:38;15.40;1.00
19033;DHT22;9649;51.042;13.804;2022-09-25T07:36:42;15.50;58.00
19033;DHT22;9649;51.042;13.804;2022-09-25T07:41:45;15.80;1.00
19033;DHT22;9649;51.042;13.804;2022-09-25T07:46:48;15.90;99.90
19033;DHT22;9649;51.042;13.804;2022-09-25T07:51:52;15.70;1.00
19033;DHT22;9649;51.042;13.804;2022-09-25T07:56:55;16.40;1.00
19033;DHT22;9649;51.042;13.804;2022-09-25T08:01:57;17.40;1.00
19033;DHT22;9649;51.042;13.804;2022-09-25T08:07:01;19.00;1.00
19033;DHT22;9649;51.042;13.804;2022-09-25T08:12:05;21.40;1.00
19033;DHT22;9649;51.042;13.804;2022-09-25T08:17:08;22.50;1.00
19033;DHT22;9649;51.042;13.804;2022-09-25T08:22:12;23.60;1.00
19033;DHT22;9649;51.042;13.804;2022-09-25T08:27:14;24.90;1.00
19033;DHT22;9649;51.042;13.804;2022-09-25T08:32:17;23.90;1.00
19033;DHT22;9649;51.042;13.804;2022-09-25T08:37:21;22.90;1.00
19033;DHT22;9649;51.042;13.804;2022-09-25T08:42:27;22.40;1.00
19033;DHT22;9649;51.042;13.804;2022-09-25T08:47:31;22.00;1.00
19033;DHT22;9649;51.042;13.804;2022-09-25T08:53:01;24.00;1.00
19033;DHT22;9649;51.042;13.804;2022-09-25T08:58:05;25.00;1.00
19033;DHT22;9649;51.042;13.804;2022-09-25T09:03:10;25.40;1.00
19033;DHT22;9649;51.042;13.804;2022-09-25T09:08:18;26.40;1.00
19033;DHT22;9649;51.042;13.804;2022-09-25T09:13:30;28.90;1.00
19033;DHT22;9649;51.042;13.804;2022-09-25T09:18:36;32.10;1.00
19033;DHT22;9649;51.042;13.804;2022-09-25T09:23:48;36.20;99.90
19033;DHT22;9649;51.042;13.804;2022-09-25T09:29:16;37.40;99.90
19033;DHT22;9649;51.042;13.804;2022-09-25T09:34:41;39.30;99.90
19033;DHT22;9649;51.042;13.804;2022-09-25T09:40:28;39.10;99.90
19033;DHT22;9649;51.042;13.804;2022-09-25T09:45:40;39.10;99.90
19033;DHT22;9649;51.042;13.804;2022-09-25T09:50:48;40.00;99.90
19033;DHT22;9649;51.042;13.804;2022-09-25T09:55:58;41.60;99.90
19033;DHT22;9649;51.042;13.804;2022-09-25T10:01:02;44.60;99.90
19033;DHT22;9649;51.042;13.804;2022-09-25T10:06:28;46.00;99.90
19033;DHT22;9649;51.042;13.804;2022-09-25T10:11:34;46.60;99.90
19033;DHT22;9649;51.042;13.804;2022-09-25T10:16:38;47.90;99.90
19033;DHT22;9649;51.042;13.804;2022-09-25T10:21:43;48.40;99.90
19033;DHT22;9649;51.042;13.804;2022-09-25T10:26:49;46.80;99.90
19033;DHT22;9649;51.042;13.804;2022-09-25T10:31:57;45.30;99.90
19033;DHT22;9649;51.042;13.804;2022-09-25T10:37:12;42.90;99.90
19033;DHT22;9649;51.042;13.804;2022-09-25T10:42:36;43.10;99.90
19033;DHT22;9649;51.042;13.804;2022-09-25T10:47:41;46.00;99.90
19033;DHT22;9649;51.042;13.804;2022-09-25T10:53:02;47.00;99.90
19033;DHT22;9649;51.042;13.804;2022-09-25T10:58:18;44.70;99.90
19033;DHT22;9649;51.042;13.804;2022-09-25T11:03:24;44.20;99.90
19033;DHT22;9649;51.042;13.804;2022-09-25T11:08:28;46.10;99.90
19033;DHT22;9649;51.042;13.804;2022-09-25T11:13:44;48.20;99.90
19033;DHT22;9649;51.042;13.804;2022-09-25T11:18:49;47.00;99.90
19033;DHT22;9649;51.042;13.804;2022-09-25T11:24:02;46.30;99.90
19033;DHT22;9649;51.042;13.804;2022-09-25T11:29:11;46.10;99.90
19033;DHT22;9649;51.042;13.804;2022-09-25T11:34:23;47.90;99.90
19033;DHT22;9649;51.042;13.804;2022-09-25T11:39:37;47.20;99.90
19033;DHT22;9649;51.042;13.804;2022-09-25T11:45:13;45.70;99.90
19033;DHT22;9649;51.042;13.804;2022-09-25T11:50:17;44.40;99.90
19033;DHT22;9649;51.042;13.804;2022-09-25T11:55:54;45.50;99.90
19033;DHT22;9649;51.042;13.804;2022-09-25T12:01:07;42.40;99.90
19033;DHT22;9649;51.042;13.804;2022-09-25T12:06:35;40.40;99.90
19033;DHT22;9649;51.042;13.804;2022-09-25T12:11:44;38.10;99.90
19033;DHT22;9649;51.042;13.804;2022-09-25T12:17:00;37.30;99.90
19033;DHT22;9649;51.042;13.804;2022-09-25T12:22:10;41.20;99.90
19033;DHT22;9649;51.042;13.804;2022-09-25T12:27:20;42.30;99.90
19033;DHT22;9649;51.042;13.804;2022-09-25T12:32:32;41.60;99.90
19033;DHT22;9649;51.042;13.804;2022-09-25T12:37:40;42.20;99.90
19033;DHT22;9649;51.042;13.804;2022-09-25T12:42:49;40.60;99.90
19033;DHT22;9649;51.042;13.804;2022-09-25T12:48:05;38.20;99.90
19033;DHT22;9649;51.042;13.804;2022-09-25T12:53:20;41.70;99.90
19033;DHT22;9649;51.042;13.804;2022-09-25T12:58:33;44.10;99.90
19033;DHT22;9649;51.042;13.804;2022-09-25T13:03:47;41.00;99.90
19033;DHT22;9649;51.042;13.804;2022-09-25T13:08:56;37.80;99.90
19033;DHT22;9649;51.042;13.804;2022-09-25T13:14:04;36.40;99.90
19033;DHT22;9649;51.042;13.804;2022-09-25T13:19:23;38.50;99.90
19033;DHT22;9649;51.042;13.804;2022-09-25T13:24:26;39.90;99.90
19033;DHT22;9649;51.042;13.804;2022-09-25T13:29:32;40.80;99.90
19033;DHT22;9649;51.042;13.804;2022-09-25T13:34:39;41.30;99.90
19033;DHT22;9649;51.042;13.804;2022-09-25T13:39:45;41.10;99.90
19033;DHT22;9649;51.042;13.804;2022-09-25T13:45:30;41.70;99.90
19033;DHT22;9649;51.042;13.804;2022-09-25T13:50:40;43.40;99.90
19033;DHT22;9649;51.042;13.804;2022-09-25T13:56:21;43.70;99.90
19033;DHT22;9649;51.042;13.804;2022-09-25T14:01:33;39.80;99.90
19033;DHT22;9649;51.042;13.804;2022-09-25T14:06:38;38.10;99.90
19033;DHT22;9649;51.042;13.804;2022-09-25T14:11:50;38.00;99.90
19033;DHT22;9649;51.042;13.804;2022-09-25T14:16:55;37.40;99.90
19033;DHT22;9649;51.042;13.804;2022-09-25T14:22:02;37.70;99.90
19033;DHT22;9649;51.042;13.804;2022-09-25T14:27:17;31.30;99.90
19033;DHT22;9649;51.042;13.804;2022-09-25T14:32:36;28.50;99.90
19033;DHT22;9649;51.042;13.804;2022-09-25T14:43:48;30.60;99.90
19033;DHT22;9649;51.042;13.804;2022-09-25T14:48:55;29.10;99.90
19033;DHT22;9649;51.042;13.804;2022-09-25T14:54:03;26.80;99.90
19033;DHT22;9649;51.042;13.804;2022-09-25T14:59:09;25.10;99.90
19033;DHT22;9649;51.042;13.804;2022-09-25T15:04:24;23.80;99.90
19033;DHT22;9649;51.042;13.804;2022-09-25T15:09:35;23.00;99.90
19033;DHT22;9649;51.042;13.804;2022-09-25T15:14:38;22.80;99.90
19033;DHT22;9649;51.042;13.804;2022-09-25T15:19:42;22.60;99.90
19033;DHT22;9649;51.042;13.804;2022-09-25T15:24:50;22.10;99.90
19033;DHT22;9649;51.042;13.804;2022-09-25T15:29:55;21.60;99.90
19033;DHT22;9649;51.042;13.804;2022-09-25T15:35:07;21.30;1.00
19033;DHT22;9649;51.042;13.804;2022-09-25T15:40:23;21.20;1.00
19033;DHT22;9649;51.042;13.804;2022-09-25T15:45:37;21.10;1.00
19033;DHT22;9649;51.042;13.804;2022-09-25T15:50:42;21.70;1.00
19033;DHT22;9649;51.042;13.804;2022-09-25T15:55:47;21.60;1.00
19033;DHT22;9649;51.042;13.804;2022-09-25T16:00:56;21.10;1.00
19033;DHT22;9649;51.042;13.804;2022-09-25T16:06:18;20.70;1.00
19033;DHT22;9649;51.042;13.804;2022-09-25T16:11:23;20.50;1.00
19033;DHT22;9649;51.042;13.804;2022-09-25T16:16:28;20.20;36.10
19033;DHT22;9649;51.042;13.804;2022-09-25T16:21:38;20.00;99.90
19033;DHT22;9649;51.042;13.804;2022-09-25T16:26:43;20.00;1.00
19033;DHT22;9649;51.042;13.804;2022-09-25T16:31:47;20.20;1.00
19033;DHT22;9649;51.042;13.804;2022-09-25T16:36:56;20.20;99.90
19033;DHT22;9649;51.042;13.804;2022-09-25T16:42:28;19.70;1.00
19033;DHT22;9649;51.042;13.804;2022-09-25T16:47:31;19.20;1.00
19033;DHT22;9649;51.042;13.804;2022-09-25T16:52:34;18.70;1.00
19033;DHT22;9649;51.042;13.804;2022-09-25T16:57:42;18.40;99.90
19033;DHT22;9649;51.042;13.804;2022-09-25T17:02:47;18.10;1.00
19033;DHT22;9649;51.042;13.804;2022-09-25T17:07:52;18.10;1.00
19033;DHT22;9649;51.042;13.804;2022-09-25T17:12:59;18.20;1.00
19033;DHT22;9649;51.042;13.804;2022-09-25T17:18:10;17.90;99.90
19033;DHT22;9649;51.042;13.804;2022-09-25T17:23:13;17.50;1.00
19033;DHT22;9649;51.042;13.804;2022-09-25T17:28:19;17.50;1.00
19033;DHT22;9649;51.042;13.804;2022-09-25T17:33:22;17.60;59.90
19033;DHT22;9649;51.042;13.804;2022-09-25T17:38:25;17.20;99.90
19033;DHT22;9649;51.042;13.804;2022-09-25T17:43:29;17.10;99.90
19033;DHT22;9649;51.042;13.804;2022-09-25T17:48:32;17.00;1.00
19033;DHT22;9649;51.042;13.804;2022-09-25T17:53:35;16.50;1.00
19033;DHT22;9649;51.042;13.804;2022-09-25T17:58:40;16.40;1.00
19033;DHT22;9649;51.042;13.804;2022-09-25T18:03:44;16.30;1.00
19033;DHT22;9649;51.042;13.804;2022-09-25T18:08:47;16.10;99.90
19033;DHT22;9649;51.042;13.804;2022-09-25T18:13:53;15.90;1.00
19033;DHT22;9649;51.042;13.804;2022-09-25T18:18:57;15.70;1.00
19033;DHT22;9649;51.042;13.804;2022-09-25T18:24:18;15.90;1.00
19033;DHT22;9649;51.042;13.804;2022-09-25T18:29:22;16.00;10.20
19033;DHT22;9649;51.042;13.804;2022-09-25T18:34:25;15.60;1.00
19033;DHT22;9649;51.042;13.804;2022-09-25T18:39:29;15.50;99.90
19033;DHT22;9649;51.042;13.804;2022-09-25T18:44:33;15.20;1.00
19033;DHT22;9649;51.042;13.804;2022-09-25T18:49:43;15.00;1.00
19033;DHT22;9649;51.042;13.804;2022-09-25T18:54:46;14.80;1.00
19033;DHT22;9649;51.042;13.804;2022-09-25T18:59:50;15.10;1.00
19033;DHT22;9649;51.042;13.804;2022-09-25T19:04:56;15.40;1.00
19033;DHT22;9649;51.042;13.804;2022-09-25T19:10:09;15.30;1.00
19033;DHT22;9649;51.042;13.804;2022-09-25T19:15:15;15.10;1.00
19033;DHT22;9649;51.042;13.804;2022-09-25T19:20:21;15.20;1.00
19033;DHT22;9649;51.042;13.804;2022-09-25T19:25:26;15.10;1.00
19033;DHT22;9649;51.042;13.804;2022-09-25T19:30:30;14.80;1.00
19033;DHT22;9649;51.042;13.804;2022-09-25T19:35:33;14.50;1.00
19033;DHT22;9649;51.042;13.804;2022-09-25T19:40:37;14.20;1.00
19033;DHT22;9649;51.042;13.804;2022-09-25T19:45:49;14.30;1.00
19033;DHT22;9649;51.042;13.804;2022-09-25T19:50:53;14.40;1.00
19033;DHT22;9649;51.042;13.804;2022-09-25T19:55:56;14.50;1.00
19033;DHT22;9649;51.042;13.804;2022-09-25T20:01:00;14.60;1.00
19033;DHT22;9649;51.042;13.804;2022-09-25T20:06:04;14.10;1.00
19033;DHT22;9649;51.042;13.804;2022-09-25T20:11:15;14.00;25.60
19033;DHT22;9649;51.042;13.804;2022-09-25T20:16:24;14.00;34.00
19033;DHT22;9649;51.042;13.804;2022-09-25T20:21:29;13.90;89.10
19033;DHT22;9649;51.042;13.804;2022-09-25T20:26:33;13.90;99.90
19033;DHT22;9649;51.042;13.804;2022-09-25T20:31:39;14.10;99.90
19033;DHT22;9649;51.042;13.804;2022-09-25T20:36:42;14.00;86.30
19033;DHT22;9649;51.042;13.804;2022-09-25T20:41:45;13.80;99.90
19033;DHT22;9649;51.042;13.804;2022-09-25T20:46:49;13.80;99.90
19033;DHT22;9649;51.042;13.804;2022-09-25T20:51:52;13.90;99.90
19033;DHT22;9649;51.042;13.804;2022-09-25T20:56:55;13.90;99.90
19033;DHT22;9649;51.042;13.804;2022-09-25T21:01:59;13.80;99.90
19033;DHT22;9649;51.042;13.804;2022-09-25T21:07:02;13.60;99.90
19033;DHT22;9649;51.042;13.804;2022-09-25T21:12:05;13.40;99.90
19033;DHT22;9649;51.042;13.804;2022-09-25T21:17:09;13.30;99.90
19033;DHT22;9649;51.042;13.804;2022-09-25T21:22:12;13.40;99.90
19033;DHT22;9649;51.042;13.804;2022-09-25T21:27:15;13.40;99.90
19033;DHT22;9649;51.042;13.804;2022-09-25T21:32:19;13.80;99.90
19033;DHT22;9649;51.042;13.804;2022-09-25T21:37:21;14.00;99.90
19033;DHT22;9649;51.042;13.804;2022-09-25T21:42:24;13.90;99.90
19033;DHT22;9649;51.042;13.804;2022-09-25T21:47:31;14.00;99.90
19033;DHT22;9649;51.042;13.804;2022-09-25T21:52:34;13.90;99.90
19033;DHT22;9649;51.042;13.804;2022-09-25T21:57:39;14.00;99.90
19033;DHT22;9649;51.042;13.804;2022-09-25T22:02:43;14.00;99.90
19033;DHT22;9649;51.042;13.804;2022-09-25T22:07:46;13.80;99.90
19033;DHT22;9649;51.042;13.804;2022-09-25T22:12:51;13.60;99.90
19033;DHT22;9649;51.042;13.804;2022-09-25T22:17:55;13.70;99.90
19033;DHT22;9649;51.042;13.804;2022-09-25T22:22:58;13.70;99.90
19033;DHT22;9649;51.042;13.804;2022-09-25T22:28:01;13.70;99.90
19033;DHT22;9649;51.042;13.804;2022-09-25T22:33:04;13.80;99.90
19033;DHT22;9649;51.042;13.804;2022-09-25T22:38:07;13.70;99.90
19033;DHT22;9649;51.042;13.804;2022-09-25T22:43:10;13.60;99.90
19033;DHT22;9649;51.042;13.804;2022-09-25T22:48:14;13.50;99.90
19033;DHT22;9649;51.042;13.804;2022-09-25T22:53:16;13.40;99.90
19033;DHT22;9649;51.042;13.804;2022-09-25T22:58:19;13.50;99.90
19033;DHT22;9649;51.042;13.804;2022-09-25T23:03:24;13.60;99.90
19033;DHT22;9649;51.042;13.804;2022-09-25T23:08:26;13.60;99.90
19033;DHT22;9649;51.042;13.804;2022-09-25T23:13:29;13.80;99.90
19033;DHT22;9649;51.042;13.804;2022-09-25T23:18:34;13.80;99.90
19033;DHT22;9649;51.042;13.804;2022-09-25T23:23:37;13.80;99.90
19033;DHT22;9649;51.042;13.804;2022-09-25T23:28:40;13.90;99.90
19033;DHT22;9649;51.042;13.804;2022-09-25T23:33:45;13.90;99.90
19033;DHT22;9649;51.042;13.804;2022-09-25T23:38:48;14.00;19.50
19033;DHT22;9649;51.042;13.804;2022-09-25T23:43:52;13.90;4.80
19033;DHT22;9649;51.042;13.804;2022-09-25T23:48:57;13.90;20.60
19033;DHT22;9649;51.042;13.804;2022-09-25T23:54:00;13.90;22.20
19033;DHT22;9649;51.042;13.804;2022-09-25T23:59:04;13.90;18.40
